createdAt,value
2022-11-04T00:00:18.744Z,88.82
2022-11-04T00:02:47.707Z,87.22
2022-11-04T00:05:17.997Z,86.75
2022-11-04T00:08:04.680Z,87.80
2022-11-04T00:10:47.580Z,88.57
2022-11-04T00:13:16.520Z,89.35
2022-11-04T00:16:03.159Z,88.22
2022-11-04T00:18:32.069Z,89.43
2022-11-04T00:21:19.757Z,90.77
2022-11-04T00:24:06.510Z,91.40
2022-11-04T00:26:52.815Z,91.63
2022-11-04T00:29:21.750Z,91.19
2022-11-04T00:32:08.159Z,92.77
2022-11-04T00:34:37.091Z,92.87
2022-11-04T00:37:07.436Z,94.10
2022-11-04T00:39:36.333Z,94.34
2022-11-04T00:42:05.622Z,93.45
2022-11-04T00:44:34.564Z,94.27
2022-11-04T00:47:03.439Z,94.29
2022-11-04T00:49:32.510Z,94.55
2022-11-04T00:52:01.446Z,95.29
2022-11-04T00:54:31.725Z,94.24
2022-11-04T00:57:00.604Z,93.38
2022-11-04T00:59:29.514Z,93.45
2022-11-04T01:01:58.697Z,93.69
2022-11-04T01:04:27.800Z,94.85
2022-11-04T01:06:56.848Z,94.58
2022-11-04T01:09:25.887Z,94.57
2022-11-04T01:11:56.244Z,94.28
2022-11-04T01:14:25.189Z,95.31
2022-11-04T01:16:54.107Z,94.64
2022-11-04T01:19:23.351Z,95.21
2022-11-04T01:21:53.326Z,94.43
2022-11-04T01:24:22.258Z,94.44
2022-11-04T01:26:51.177Z,94.34
2022-11-04T01:29:21.432Z,94.82
2022-11-04T01:31:50.332Z,93.71
2022-11-04T01:34:19.299Z,94.74
2022-11-04T01:36:48.225Z,94.33
2022-11-04T01:39:17.123Z,95.15
2022-11-04T01:41:46.098Z,95.36
2022-11-04T01:44:52.086Z,94.67
2022-11-04T01:47:25.847Z,94.39
2022-11-04T01:49:58.819Z,94.63
2022-11-04T01:52:33.394Z,95.16
2022-11-04T01:55:06.412Z,94.43
2022-11-04T01:57:37.974Z,95.37
2022-11-04T02:00:10.506Z,96.02
2022-11-04T02:02:51.940Z,94.73
2022-11-04T02:05:21.625Z,93.98
2022-11-04T02:07:53.816Z,94.25
2022-11-04T02:10:26.067Z,94.71
2022-11-04T02:12:54.813Z,95.16
2022-11-04T02:15:36.112Z,95.10
2022-11-04T02:18:42.693Z,94.31
2022-11-04T02:21:31.155Z,94.90
2022-11-04T02:27:42.650Z,95.12
2022-11-04T02:30:15.286Z,95.80
2022-11-04T02:33:06.687Z,95.59
2022-11-04T02:35:44.776Z,96.19
2022-11-04T02:38:22.563Z,95.76
2022-11-04T02:41:02.081Z,96.52
2022-11-04T02:43:40.192Z,96.64
2022-11-04T02:46:19.259Z,97.27
2022-11-04T02:48:53.566Z,97.91
2022-11-04T02:51:28.549Z,98.75
2022-11-04T02:54:05.589Z,99.39
2022-11-04T02:56:38.472Z,98.40
2022-11-04T02:59:12.476Z,98.07
2022-11-04T03:01:46.371Z,99.18
2022-11-04T03:04:19.013Z,99.47
2022-11-04T03:06:51.939Z,100.00
2022-11-04T03:09:23.983Z,100.00
2022-11-04T03:11:58.983Z,100.00
2022-11-04T03:14:33.739Z,100.00
2022-11-04T03:17:07.437Z,100.00
2022-11-04T03:19:43.325Z,100.00
2022-11-04T03:22:14.356Z,100.00
2022-11-04T03:24:45.796Z,100.00
2022-11-04T03:27:21.952Z,100.00
2022-11-04T03:29:58.858Z,100.00
2022-11-04T03:32:40.141Z,100.00
2022-11-04T03:35:09.783Z,100.00
2022-11-04T03:37:39.023Z,100.00
2022-11-04T03:40:09.509Z,100.00
2022-11-04T03:42:49.841Z,100.00
2022-11-04T03:45:18.938Z,100.00
2022-11-04T03:47:49.890Z,100.00
2022-11-04T03:50:27.024Z,100.00
2022-11-04T03:52:56.637Z,100.00
2022-11-04T03:55:34.220Z,100.00
2022-11-04T03:58:08.847Z,100.00
2022-11-04T04:00:44.360Z,100.00
2022-11-04T04:03:19.548Z,100.00
2022-11-04T04:05:53.926Z,100.00
2022-11-04T04:08:32.951Z,100.00
2022-11-04T04:11:08.156Z,100.00
2022-11-04T04:13:45.130Z,100.00
2022-11-04T04:16:22.098Z,100.00
2022-11-04T04:18:59.069Z,100.00
2022-11-04T04:21:32.789Z,100.00
2022-11-04T04:24:23.256Z,100.00
2022-11-04T04:27:12.853Z,100.00
2022-11-04T04:29:44.317Z,100.00
2022-11-04T04:32:14.241Z,100.00
2022-11-04T04:34:45.316Z,100.00
2022-11-04T04:37:21.192Z,100.00
2022-11-04T04:40:11.402Z,100.00
2022-11-04T04:43:03.654Z,100.00
2022-11-04T04:45:35.800Z,100.00
2022-11-04T04:48:05.551Z,100.00
2022-11-04T04:50:38.839Z,100.00
2022-11-04T04:53:08.094Z,100.00
2022-11-04T04:55:40.730Z,100.00
2022-11-04T04:58:11.286Z,100.00
2022-11-04T05:00:40.223Z,100.00
2022-11-04T05:03:09.449Z,100.00
2022-11-04T05:05:39.854Z,100.00
2022-11-04T05:08:10.401Z,98.79
2022-11-04T05:10:39.609Z,93.57
2022-11-04T05:13:26.016Z,92.63
2022-11-04T05:15:55.089Z,91.33
2022-11-04T05:18:24.201Z,92.69
2022-11-04T05:20:54.500Z,89.98
2022-11-04T05:23:23.663Z,90.73
2022-11-04T05:25:52.593Z,91.25
2022-11-04T05:28:21.515Z,90.60
2022-11-04T05:30:50.425Z,90.18
2022-11-04T05:33:19.307Z,90.65
2022-11-04T05:35:48.254Z,89.97
2022-11-04T05:38:18.519Z,89.09
2022-11-04T05:40:47.481Z,88.76
2022-11-04T05:43:16.509Z,88.40
2022-11-04T05:45:46.384Z,87.14
2022-11-04T05:48:15.321Z,87.83
2022-11-04T05:50:44.603Z,87.73
2022-11-04T05:53:13.671Z,88.64
2022-11-04T05:55:43.998Z,89.05
2022-11-04T05:58:13.061Z,88.57
2022-11-04T06:00:43.031Z,88.15
2022-11-04T06:03:15.311Z,89.04
2022-11-04T06:05:45.384Z,87.57
2022-11-04T06:08:19.944Z,89.69
2022-11-04T06:10:50.244Z,88.78
2022-11-04T06:13:19.241Z,87.77
2022-11-04T06:15:48.372Z,88.12
2022-11-04T06:18:17.342Z,87.88
2022-11-04T06:20:46.287Z,88.97
2022-11-04T06:23:15.247Z,88.26
2022-11-04T06:25:44.206Z,89.36
2022-11-04T06:28:14.468Z,87.63
2022-11-04T06:30:43.410Z,87.24
2022-11-04T06:33:12.340Z,88.63
2022-11-04T06:35:41.258Z,88.47
2022-11-04T06:38:10.506Z,89.36
2022-11-04T06:40:39.648Z,88.80
2022-11-04T06:43:08.830Z,89.06
2022-11-04T06:45:39.299Z,89.13
2022-11-04T06:48:08.473Z,89.01
2022-11-04T06:50:37.413Z,88.25
2022-11-04T06:53:06.632Z,88.98
2022-11-04T06:55:35.977Z,88.92
2022-11-04T06:58:04.978Z,89.84
2022-11-04T07:00:33.876Z,89.75
2022-11-04T07:03:04.324Z,89.85
2022-11-04T07:05:34.486Z,90.73
2022-11-04T07:08:03.439Z,91.22
2022-11-04T07:10:32.630Z,89.29
2022-11-04T07:13:01.671Z,90.38
2022-11-04T07:15:32.772Z,89.72
2022-11-04T07:18:03.380Z,88.91
2022-11-04T07:20:32.296Z,89.67
2022-11-04T07:23:01.225Z,89.11
2022-11-04T07:25:30.247Z,89.22
2022-11-04T07:28:02.315Z,89.99
2022-11-04T07:30:32.307Z,89.30
2022-11-04T07:33:01.229Z,90.52
2022-11-04T07:35:31.539Z,89.94
2022-11-04T07:38:00.457Z,89.32
2022-11-04T07:40:29.463Z,90.81
2022-11-04T07:42:58.439Z,90.53
2022-11-04T07:45:37.719Z,91.11
2022-11-04T07:48:07.250Z,89.75
2022-11-04T07:50:41.114Z,89.48
2022-11-04T07:53:12.098Z,89.89
2022-11-04T07:55:43.517Z,90.85
2022-11-04T07:58:12.672Z,90.01
2022-11-04T08:00:41.672Z,89.48
2022-11-04T08:03:11.020Z,89.21
2022-11-04T08:05:41.700Z,89.75
2022-11-04T08:08:10.656Z,88.71
2022-11-04T08:10:40.028Z,88.89
2022-11-04T08:13:09.542Z,89.33
2022-11-04T08:15:38.823Z,89.22
2022-11-04T08:18:07.779Z,89.14
2022-11-04T08:20:38.265Z,88.38
2022-11-04T08:23:12.141Z,88.36
2022-11-04T08:25:41.756Z,88.72
2022-11-04T08:28:12.991Z,89.08
2022-11-04T08:30:41.943Z,89.85
2022-11-04T08:33:11.395Z,89.91
2022-11-04T08:35:42.747Z,89.94
2022-11-04T08:38:12.992Z,89.11
2022-11-04T08:40:41.919Z,87.68
2022-11-04T08:43:11.118Z,88.57
2022-11-04T08:45:42.111Z,87.66
2022-11-04T08:48:11.829Z,88.96
2022-11-04T08:50:41.269Z,87.47
2022-11-04T08:53:12.197Z,88.31
2022-11-04T08:55:41.222Z,87.90
2022-11-04T08:58:10.502Z,87.88
2022-11-04T09:00:40.071Z,87.45
2022-11-04T09:03:09.363Z,87.86
2022-11-04T09:05:44.630Z,86.62
2022-11-04T09:08:16.700Z,86.93
2022-11-04T09:10:47.126Z,85.97
2022-11-04T09:13:16.896Z,87.00
2022-11-04T09:15:48.839Z,87.29
2022-11-04T09:18:17.994Z,86.18
2022-11-04T09:20:47.059Z,86.41
2022-11-04T09:23:17.337Z,86.15
2022-11-04T09:25:46.263Z,86.73
2022-11-04T09:28:15.216Z,86.25
2022-11-04T09:30:44.152Z,85.06
2022-11-04T09:33:13.071Z,83.68
2022-11-04T09:35:42.029Z,84.95
2022-11-04T09:38:10.969Z,84.77
2022-11-04T09:40:41.346Z,84.24
2022-11-04T09:43:32.181Z,84.88
2022-11-04T09:46:02.360Z,84.87
2022-11-04T09:48:36.125Z,84.39
2022-11-04T09:51:12.870Z,84.44
2022-11-04T09:53:52.433Z,83.73
2022-11-04T09:56:26.159Z,82.60
2022-11-04T09:58:55.278Z,82.16
2022-11-04T10:01:33.056Z,83.12
2022-11-04T10:04:27.601Z,82.44
2022-11-04T10:07:09.933Z,83.20
2022-11-04T10:09:52.202Z,83.02
2022-11-04T10:12:47.301Z,82.16
2022-11-04T10:15:39.935Z,82.63
2022-11-04T10:18:23.836Z,83.44
2022-11-04T10:20:59.568Z,84.00
2022-11-04T10:23:35.603Z,83.99
2022-11-04T10:26:13.421Z,82.92
2022-11-04T10:28:48.511Z,81.20
2022-11-04T10:31:19.593Z,81.83
2022-11-04T10:33:53.041Z,82.41
2022-11-04T10:36:23.348Z,82.03
2022-11-04T10:38:54.753Z,81.97
2022-11-04T10:41:34.132Z,81.45
2022-11-04T10:44:07.296Z,80.86
2022-11-04T10:46:45.649Z,80.28
2022-11-04T10:50:26.384Z,80.06
2022-11-04T10:52:43.095Z,80.07
2022-11-04T10:55:23.099Z,80.00
2022-11-04T10:57:55.004Z,79.73
2022-11-04T11:00:41.069Z,79.54
2022-11-04T11:03:32.196Z,79.26
2022-11-04T11:06:23.835Z,79.69
2022-11-04T11:08:55.423Z,77.39
2022-11-04T11:11:41.955Z,79.08
2022-11-04T11:14:19.107Z,77.65
2022-11-04T11:16:49.441Z,78.27
2022-11-04T11:19:20.547Z,77.93
2022-11-04T11:21:51.508Z,78.02
2022-11-04T11:24:23.104Z,78.79
2022-11-04T11:26:54.031Z,78.46
2022-11-04T11:29:26.942Z,74.24
2022-11-04T11:32:00.619Z,74.43
2022-11-04T11:34:34.009Z,73.96
2022-11-04T11:37:05.153Z,76.60
2022-11-04T11:39:36.341Z,77.42
2022-11-04T11:42:09.249Z,77.49
2022-11-04T11:44:44.571Z,76.43
2022-11-04T11:47:22.024Z,76.23
2022-11-04T11:50:08.482Z,76.53
2022-11-04T11:52:38.283Z,76.71
2022-11-04T11:55:13.007Z,75.96
2022-11-04T12:00:49.163Z,74.28
2022-11-04T12:06:34.903Z,75.38
2022-11-04T12:09:18.280Z,75.70
2022-11-04T12:12:02.925Z,74.65
2022-11-04T12:14:49.207Z,74.15
2022-11-04T12:17:31.781Z,74.89
2022-11-04T12:20:15.103Z,75.84
2022-11-04T12:22:56.073Z,75.60
2022-11-04T12:25:32.730Z,75.83
2022-11-04T12:28:10.858Z,75.20
2022-11-04T12:30:52.381Z,75.70
2022-11-04T12:33:33.063Z,73.72
2022-11-04T12:36:21.742Z,72.87
2022-11-04T12:39:08.026Z,73.46
2022-11-04T12:42:14.853Z,73.80
2022-11-04T12:44:42.331Z,73.50
2022-11-04T12:47:30.083Z,72.73
2022-11-04T12:50:09.442Z,73.80
2022-11-04T12:53:11.005Z,73.93
2022-11-04T12:55:50.742Z,75.48
2022-11-04T12:58:33.700Z,76.07
2022-11-04T13:01:12.421Z,76.30
2022-11-04T13:03:49.587Z,75.14
2022-11-04T13:06:22.355Z,76.74
2022-11-04T13:08:57.991Z,76.17
2022-11-04T13:11:31.915Z,76.88
2022-11-04T13:14:06.487Z,75.00
2022-11-04T13:16:39.269Z,75.13
2022-11-04T13:19:15.725Z,75.92
2022-11-04T13:21:45.203Z,76.03
2022-11-04T13:24:24.012Z,75.83
2022-11-04T13:26:54.351Z,76.46
2022-11-04T13:29:25.752Z,74.71
2022-11-04T13:32:02.891Z,73.95
2022-11-04T13:34:40.027Z,73.81
2022-11-04T13:37:18.333Z,73.65
2022-11-04T13:39:54.606Z,71.65
2022-11-04T13:42:53.043Z,72.57
2022-11-04T13:45:22.181Z,74.52
2022-11-04T13:47:54.997Z,73.78
2022-11-04T13:50:35.383Z,73.44
2022-11-04T13:53:05.863Z,73.76
2022-11-04T13:55:36.914Z,73.13
2022-11-04T13:58:07.554Z,75.27
2022-11-04T14:00:39.766Z,75.42
2022-11-04T14:03:50.460Z,75.19
2022-11-04T14:06:39.434Z,75.60
2022-11-04T14:09:37.525Z,75.35
2022-11-04T14:12:27.913Z,75.84
2022-11-04T14:15:03.636Z,76.03
2022-11-04T14:18:06.846Z,76.82
2022-11-04T14:20:59.519Z,76.46
2022-11-04T14:23:28.963Z,77.09
2022-11-04T14:26:02.484Z,77.32
2022-11-04T14:28:34.652Z,76.50
2022-11-04T14:31:05.001Z,77.71
2022-11-04T14:33:42.673Z,77.66
2022-11-04T14:36:34.510Z,78.19
2022-11-04T14:39:21.306Z,77.84
2022-11-04T14:41:52.820Z,78.34
2022-11-04T14:44:37.480Z,78.46
2022-11-04T14:47:25.210Z,79.87
2022-11-04T14:50:02.559Z,78.35
2022-11-04T14:52:34.619Z,78.63
2022-11-04T14:55:07.157Z,77.31
2022-11-04T14:57:41.501Z,76.61
2022-11-04T15:00:29.526Z,77.12
2022-11-04T15:03:51.995Z,77.65
2022-11-04T15:06:09.593Z,77.22
2022-11-04T15:08:44.749Z,77.28
2022-11-04T15:11:17.485Z,77.81
2022-11-04T15:13:48.943Z,78.76
2022-11-04T15:16:23.072Z,79.31
2022-11-04T15:18:54.055Z,78.84
2022-11-04T15:21:23.447Z,80.37
2022-11-04T15:23:55.326Z,79.66
2022-11-04T15:26:30.212Z,80.19
2022-11-04T15:29:01.956Z,81.24
2022-11-04T15:31:34.172Z,82.08
2022-11-04T15:34:07.297Z,82.70
2022-11-04T15:36:42.582Z,83.46
2022-11-04T15:39:15.167Z,83.21
2022-11-04T15:42:03.652Z,84.37
2022-11-04T15:44:36.466Z,84.37
2022-11-04T15:47:24.038Z,84.86
2022-11-04T15:49:54.746Z,84.79
2022-11-04T15:52:26.549Z,85.44
2022-11-04T15:54:58.596Z,85.94
2022-11-04T15:57:31.765Z,85.73
2022-11-04T16:00:03.890Z,86.03
2022-11-04T16:02:51.068Z,86.70
2022-11-04T16:05:26.239Z,86.62
2022-11-04T16:07:58.372Z,87.13
2022-11-04T16:10:31.231Z,89.09
2022-11-04T16:13:03.200Z,89.54
2022-11-04T16:15:35.613Z,89.66
2022-11-04T16:18:08.453Z,90.24
2022-11-04T16:20:37.548Z,90.15
2022-11-04T16:23:06.664Z,90.18
2022-11-04T16:25:38.344Z,90.88
2022-11-04T16:28:08.737Z,89.67
2022-11-04T16:30:38.702Z,91.23
2022-11-04T16:33:19.358Z,91.23
2022-11-04T16:35:49.443Z,92.00
2022-11-04T16:38:19.068Z,92.57
2022-11-04T16:40:50.841Z,92.17
2022-11-04T16:43:22.372Z,92.39
2022-11-04T16:45:54.003Z,92.43
2022-11-04T16:48:27.721Z,93.23
2022-11-04T16:50:58.098Z,94.12
2022-11-04T16:53:28.101Z,94.23
2022-11-04T16:56:00.044Z,94.28
2022-11-04T16:58:30.528Z,93.75
2022-11-04T17:01:05.233Z,93.80
2022-11-04T17:03:36.093Z,94.59
2022-11-04T17:06:06.196Z,94.93
2022-11-04T17:08:35.765Z,94.88
2022-11-04T17:11:06.024Z,94.04
2022-11-04T17:13:36.669Z,94.89
2022-11-04T17:16:08.303Z,95.37
2022-11-04T17:18:40.070Z,95.16
2022-11-04T17:21:12.928Z,94.01
2022-11-04T17:23:43.266Z,95.27
2022-11-04T17:26:14.992Z,95.54
2022-11-04T17:28:45.248Z,95.94
2022-11-04T17:31:19.965Z,94.70
2022-11-04T17:33:51.295Z,95.00
2022-11-04T17:36:22.197Z,94.68
2022-11-04T17:38:52.085Z,95.23
2022-11-04T17:41:39.449Z,94.95
2022-11-04T17:44:08.580Z,94.48
2022-11-04T17:46:41.676Z,95.06
2022-11-04T17:49:14.317Z,95.99
2022-11-04T17:51:45.096Z,95.10
2022-11-04T17:54:14.284Z,95.41
2022-11-04T17:56:43.828Z,96.16
2022-11-04T17:59:15.124Z,96.52
2022-11-04T18:01:45.293Z,97.56
2022-11-04T18:04:17.756Z,96.68
2022-11-04T18:06:46.832Z,96.79
2022-11-04T18:09:16.857Z,97.91
2022-11-04T18:12:04.685Z,98.72
2022-11-04T18:14:33.730Z,99.46
2022-11-04T18:17:04.616Z,98.93
2022-11-04T18:19:34.940Z,97.87
2022-11-04T18:22:04.059Z,98.30
2022-11-04T18:24:33.356Z,98.94
2022-11-04T18:27:02.408Z,98.48
2022-11-04T18:29:31.684Z,99.60
2022-11-04T18:32:01.285Z,99.57
2022-11-04T18:34:30.516Z,100.00
2022-11-04T18:37:01.117Z,100.00
2022-11-04T18:39:30.556Z,100.00
2022-11-04T18:41:59.884Z,100.00
2022-11-04T18:44:30.577Z,100.00
2022-11-04T18:46:59.786Z,100.00
2022-11-04T18:49:29.667Z,100.00
2022-11-04T18:52:00.643Z,100.00
2022-11-04T18:54:30.655Z,100.00
2022-11-04T18:56:59.852Z,100.00
2022-11-04T18:59:29.062Z,100.00
2022-11-04T19:01:59.604Z,100.00
2022-11-04T19:04:32.020Z,100.00
2022-11-04T19:07:04.275Z,100.00
2022-11-04T19:09:46.760Z,100.00
2022-11-04T19:12:34.578Z,100.00
2022-11-04T19:15:07.649Z,100.00
2022-11-04T19:17:37.655Z,100.00
2022-11-04T19:20:12.196Z,100.00
2022-11-04T19:22:43.719Z,100.00
2022-11-04T19:25:12.911Z,100.00
2022-11-04T19:27:44.551Z,100.00
2022-11-04T19:30:14.551Z,100.00
2022-11-04T19:32:43.514Z,100.00
2022-11-04T19:35:15.404Z,100.00
2022-11-04T19:37:45.731Z,100.00
2022-11-04T19:40:14.699Z,100.00
2022-11-04T19:43:00.962Z,100.00
2022-11-04T19:45:29.887Z,100.00
2022-11-04T19:47:58.896Z,100.00
2022-11-04T19:50:27.844Z,100.00
2022-11-04T19:52:58.160Z,100.00
2022-11-04T19:55:27.597Z,100.00
2022-11-04T19:57:56.781Z,100.00
2022-11-04T20:00:26.100Z,100.00
2022-11-04T20:02:55.777Z,100.00
2022-11-04T20:05:24.903Z,100.00
2022-11-04T20:07:54.902Z,100.00
2022-11-04T20:10:25.629Z,100.00
2022-11-04T20:13:12.263Z,100.00
2022-11-04T20:15:41.201Z,100.00
2022-11-04T20:18:10.512Z,100.00
2022-11-04T20:20:39.997Z,100.00
2022-11-04T20:23:09.161Z,100.00
2022-11-04T20:25:39.559Z,100.00
2022-11-04T20:28:08.817Z,100.00
2022-11-04T20:30:39.415Z,100.00
2022-11-04T20:33:08.312Z,100.00
2022-11-04T20:35:37.610Z,100.00
2022-11-04T20:38:07.175Z,100.00
2022-11-04T20:40:36.456Z,100.00
2022-11-04T20:43:06.844Z,100.00
2022-11-04T20:45:35.776Z,100.00
2022-11-04T20:48:04.805Z,100.00
2022-11-04T20:50:33.731Z,100.00
2022-11-04T20:53:02.828Z,100.00
2022-11-04T20:55:31.825Z,100.00
2022-11-04T20:58:00.853Z,100.00
2022-11-04T21:00:31.289Z,100.00
2022-11-04T21:03:00.460Z,100.00
2022-11-04T21:05:29.365Z,100.00
2022-11-04T21:07:58.401Z,100.00
2022-11-04T21:10:27.842Z,100.00
2022-11-04T21:12:56.923Z,100.00
2022-11-04T21:15:43.509Z,100.00
2022-11-04T21:18:14.580Z,100.00
2022-11-04T21:20:44.767Z,100.00
2022-11-04T21:23:15.164Z,100.00
2022-11-04T21:25:45.958Z,100.00
2022-11-04T21:28:15.863Z,100.00
2022-11-04T21:30:48.249Z,100.00
2022-11-04T21:33:18.936Z,100.00
2022-11-04T21:35:48.816Z,100.00
2022-11-04T21:38:19.112Z,100.00
2022-11-04T21:40:48.237Z,100.00
2022-11-04T21:43:17.202Z,100.00
2022-11-04T21:45:46.152Z,100.00
2022-11-04T21:48:15.097Z,100.00
2022-11-04T21:50:45.489Z,100.00
2022-11-04T21:53:14.440Z,100.00
2022-11-04T21:55:43.607Z,100.00
2022-11-04T21:58:12.901Z,100.00
2022-11-04T22:00:42.246Z,100.00
2022-11-04T22:03:12.180Z,100.00
2022-11-04T22:05:41.319Z,100.00
2022-11-04T22:08:18.108Z,100.00
2022-11-04T22:10:47.260Z,100.00
2022-11-04T22:13:16.551Z,100.00
2022-11-04T22:16:08.194Z,100.00
2022-11-04T22:18:37.178Z,100.00
2022-11-04T22:21:09.399Z,100.00
2022-11-04T22:23:39.827Z,100.00
2022-11-04T22:26:12.919Z,100.00
2022-11-04T22:28:42.103Z,100.00
2022-11-04T22:31:13.964Z,100.00
2022-11-04T22:33:42.983Z,100.00
2022-11-04T22:36:12.923Z,100.00
2022-11-04T22:38:44.187Z,100.00
2022-11-04T22:41:15.935Z,100.00
2022-11-04T22:43:46.217Z,100.00
2022-11-04T22:46:17.441Z,100.00
2022-11-04T22:48:49.418Z,100.00
2022-11-04T22:51:18.992Z,100.00
2022-11-04T22:53:56.774Z,100.00
2022-11-04T22:56:28.697Z,100.00
2022-11-04T22:58:57.667Z,100.00
2022-11-04T23:01:27.347Z,100.00
2022-11-04T23:03:56.985Z,100.00
2022-11-04T23:06:25.973Z,100.00
2022-11-04T23:09:00.090Z,100.00
2022-11-04T23:11:48.616Z,100.00
2022-11-04T23:14:36.950Z,100.00
2022-11-04T23:17:33.232Z,100.00
2022-11-04T23:20:02.623Z,100.00
2022-11-04T23:22:48.992Z,100.00
2022-11-04T23:25:19.791Z,100.00
2022-11-04T23:28:08.557Z,100.00
2022-11-04T23:30:40.268Z,100.00
2022-11-04T23:33:11.145Z,100.00
2022-11-04T23:36:00.497Z,100.00
2022-11-04T23:38:30.230Z,100.00
2022-11-04T23:41:20.250Z,100.00
2022-11-04T23:43:49.179Z,100.00
2022-11-04T23:46:42.230Z,100.00
2022-11-04T23:49:30.202Z,100.00
2022-11-04T23:52:25.363Z,100.00
2022-11-04T23:55:12.001Z,100.00
2022-11-04T23:58:00.087Z,100.00
